createdAt,value
2023-01-13T00:01:14.495Z,9.20
2023-01-13T00:03:41.800Z,9.20
2023-01-13T00:06:13.026Z,9.20
2023-01-13T00:08:40.209Z,9.20
2023-01-13T00:11:06.955Z,9.20
2023-01-13T00:13:35.484Z,9.20
2023-01-13T00:16:11.998Z,9.10
2023-01-13T00:18:39.114Z,9.10
2023-01-13T00:21:11.354Z,9.10
2023-01-13T00:23:39.605Z,9.10
2023-01-13T00:26:08.977Z,9.10
2023-01-13T00:28:35.917Z,9.10
2023-01-13T00:31:13.384Z,9.10
2023-01-13T00:33:40.851Z,9.10
2023-01-13T00:36:09.127Z,9.10
2023-01-13T00:38:36.558Z,9.10
2023-01-13T00:41:09.725Z,9.10
2023-01-13T00:43:37.554Z,9.10
2023-01-13T00:46:06.963Z,9.10
2023-01-13T00:48:34.423Z,9.10
2023-01-13T00:51:07.427Z,9.10
2023-01-13T00:53:39.795Z,9.10
2023-01-13T00:56:19.964Z,9.10
2023-01-13T00:58:52.198Z,9.10
2023-01-13T01:01:21.988Z,9.10
2023-01-13T01:03:49.996Z,9.10
2023-01-13T01:06:27.364Z,9.10
2023-01-13T01:08:55.191Z,9.10
2023-01-13T01:11:28.106Z,9.10
2023-01-13T01:13:56.743Z,9.10
2023-01-13T01:16:25.352Z,9.10
2023-01-13T01:18:54.053Z,9.10
2023-01-13T01:21:22.850Z,9.10
2023-01-13T01:23:49.789Z,9.10
2023-01-13T01:26:25.039Z,9.10
2023-01-13T01:28:52.582Z,9.20
2023-01-13T01:31:24.841Z,9.20
2023-01-13T01:33:53.006Z,9.10
2023-01-13T01:36:21.122Z,9.10
2023-01-13T01:38:49.265Z,9.10
2023-01-13T01:41:19.750Z,9.10
2023-01-13T01:44:04.243Z,9.20
2023-01-13T01:46:32.972Z,9.20
2023-01-13T01:49:19.970Z,9.20
2023-01-13T01:51:52.406Z,9.30
2023-01-13T01:54:30.271Z,9.30
2023-01-13T01:56:57.527Z,9.40
2023-01-13T01:59:27.184Z,9.50
2023-01-13T02:01:54.248Z,9.50
2023-01-13T02:04:25.763Z,9.60
2023-01-13T02:06:53.651Z,9.70
2023-01-13T02:09:20.610Z,9.60
2023-01-13T02:12:05.876Z,9.60
2023-01-13T02:14:34.114Z,9.60
2023-01-13T02:17:18.301Z,9.60
2023-01-13T02:20:12.783Z,9.60
2023-01-13T02:23:30.763Z,9.30
2023-01-13T02:26:26.568Z,9.00
2023-01-13T02:29:41.854Z,8.70
2023-01-13T02:32:18.989Z,8.60
2023-01-13T02:34:56.797Z,8.40
2023-01-13T02:37:31.371Z,8.30
2023-01-13T02:40:02.988Z,8.20
2023-01-13T02:42:53.578Z,8.10
2023-01-13T02:45:36.189Z,8.10
2023-01-13T02:48:07.316Z,8.00
2023-01-13T02:50:43.106Z,8.00
2023-01-13T02:53:38.433Z,8.00
2023-01-13T02:56:06.694Z,8.00
2023-01-13T02:58:36.893Z,7.90
2023-01-13T03:01:03.864Z,7.90
2023-01-13T03:03:30.590Z,7.90
2023-01-13T03:06:29.757Z,7.90
2023-01-13T03:09:19.108Z,7.90
2023-01-13T03:12:07.140Z,7.80
2023-01-13T03:14:41.976Z,7.80
2023-01-13T03:17:42.338Z,7.80
2023-01-13T03:20:16.739Z,7.80
2023-01-13T03:22:55.157Z,7.70
2023-01-13T03:25:21.821Z,7.80
2023-01-13T03:27:52.832Z,7.70
2023-01-13T03:30:41.740Z,7.70
2023-01-13T03:33:32.135Z,7.70
2023-01-13T03:36:09.166Z,7.70
2023-01-13T03:38:43.403Z,7.60
2023-01-13T03:41:22.839Z,7.60
2023-01-13T03:44:14.576Z,7.60
2023-01-13T03:47:09.196Z,7.60
2023-01-13T03:49:46.006Z,7.60
2023-01-13T03:52:23.460Z,7.50
2023-01-13T03:54:56.728Z,7.60
2023-01-13T03:57:29.422Z,7.50
2023-01-13T04:00:00.132Z,7.50
2023-01-13T04:02:50.387Z,7.50
2023-01-13T04:05:17.590Z,7.50
2023-01-13T04:08:02.484Z,7.50
2023-01-13T04:10:34.675Z,7.50
2023-01-13T04:13:10.425Z,7.50
2023-01-13T04:15:43.767Z,7.60
2023-01-13T04:18:15.308Z,7.60
2023-01-13T04:20:43.783Z,7.60
2023-01-13T04:23:11.245Z,7.50
2023-01-13T04:25:37.951Z,7.50
2023-01-13T04:28:04.736Z,7.50
2023-01-13T04:30:31.758Z,7.50
2023-01-13T04:32:58.394Z,7.60
2023-01-13T04:35:25.036Z,7.60
2023-01-13T04:37:51.790Z,7.50
2023-01-13T04:40:18.461Z,7.50
2023-01-13T04:42:47.886Z,7.60
2023-01-13T04:45:14.910Z,7.50
2023-01-13T04:47:41.960Z,7.50
2023-01-13T04:50:10.246Z,7.40
2023-01-13T04:52:37.110Z,7.30
2023-01-13T04:55:05.307Z,7.30
2023-01-13T04:57:34.799Z,7.30
2023-01-13T05:00:02.049Z,7.20
2023-01-13T05:02:28.682Z,7.30
2023-01-13T05:04:55.338Z,7.30
2023-01-13T05:07:22.041Z,7.30
2023-01-13T05:09:48.674Z,7.30
2023-01-13T05:12:33.760Z,7.30
2023-01-13T05:15:19.178Z,7.40
2023-01-13T05:17:46.108Z,7.30
2023-01-13T05:20:14.256Z,7.30
2023-01-13T05:22:59.372Z,7.30
2023-01-13T05:25:27.349Z,7.20
2023-01-13T05:28:00.772Z,7.30
2023-01-13T05:30:31.127Z,7.20
2023-01-13T05:32:59.032Z,7.10
2023-01-13T05:35:25.934Z,7.10
2023-01-13T05:37:54.181Z,7.00
2023-01-13T05:40:39.613Z,7.00
2023-01-13T05:43:20.480Z,7.00
2023-01-13T05:45:58.741Z,7.00
2023-01-13T05:48:36.746Z,7.00
2023-01-13T05:51:05.759Z,7.00
2023-01-13T05:53:33.309Z,6.90
2023-01-13T05:56:00.230Z,6.90
2023-01-13T05:58:28.037Z,6.90
2023-01-13T06:01:00.773Z,6.70
2023-01-13T06:03:27.660Z,6.70
2023-01-13T06:05:58.708Z,6.60
2023-01-13T06:08:26.061Z,6.50
2023-01-13T06:10:52.918Z,6.50
2023-01-13T06:13:19.754Z,6.40
2023-01-13T06:15:46.424Z,6.30
2023-01-13T06:18:13.109Z,6.10
2023-01-13T06:20:39.752Z,6.10
2023-01-13T06:23:09.691Z,6.20
2023-01-13T06:25:53.307Z,6.10
2023-01-13T06:28:20.127Z,6.00
2023-01-13T06:30:54.316Z,6.10
2023-01-13T06:33:29.930Z,6.10
2023-01-13T06:36:01.547Z,6.20
2023-01-13T06:38:30.768Z,6.20
2023-01-13T06:40:57.545Z,6.30
2023-01-13T06:43:24.169Z,6.40
2023-01-13T06:45:53.093Z,6.40
2023-01-13T06:48:27.392Z,6.50
2023-01-13T06:50:54.177Z,6.50
2023-01-13T06:53:20.956Z,6.60
2023-01-13T06:55:47.663Z,6.70
2023-01-13T06:58:14.332Z,6.70
2023-01-13T07:00:41.527Z,6.90
2023-01-13T07:03:10.330Z,6.90
2023-01-13T07:05:37.364Z,6.90
2023-01-13T07:08:04.298Z,6.90
2023-01-13T07:10:31.893Z,6.90
2023-01-13T07:13:20.210Z,6.90
2023-01-13T07:16:13.124Z,6.90
2023-01-13T07:18:39.887Z,6.90
2023-01-13T07:21:09.098Z,6.80
2023-01-13T07:23:40.930Z,6.70
2023-01-13T07:26:09.437Z,6.60
2023-01-13T07:28:37.525Z,6.60
2023-01-13T07:31:05.305Z,6.50
2023-01-13T07:33:33.221Z,6.50
2023-01-13T07:36:05.132Z,6.50
2023-01-13T07:38:33.307Z,6.50
2023-01-13T07:41:22.989Z,6.50
2023-01-13T07:43:50.245Z,6.70
2023-01-13T07:46:17.563Z,6.70
2023-01-13T07:48:44.466Z,6.70
2023-01-13T07:51:12.243Z,6.70
2023-01-13T07:53:39.014Z,6.60
2023-01-13T07:56:06.938Z,6.60
2023-01-13T07:58:35.297Z,6.70
2023-01-13T08:01:08.923Z,6.80
2023-01-13T08:03:35.623Z,6.80
2023-01-13T08:06:02.512Z,6.80
2023-01-13T08:08:29.162Z,6.90
2023-01-13T08:11:00.096Z,6.90
2023-01-13T08:13:26.772Z,7.00
2023-01-13T08:15:59.344Z,6.90
2023-01-13T08:18:26.092Z,6.90
2023-01-13T08:20:53.010Z,6.80
2023-01-13T08:23:21.007Z,6.80
2023-01-13T08:25:47.988Z,6.70
2023-01-13T08:28:16.065Z,6.70
2023-01-13T08:30:43.148Z,6.80
2023-01-13T08:33:12.140Z,6.80
2023-01-13T08:35:40.252Z,6.80
2023-01-13T08:38:08.185Z,6.80
2023-01-13T08:40:35.931Z,6.80
2023-01-13T08:43:03.427Z,6.70
2023-01-13T08:45:30.263Z,6.70
2023-01-13T08:47:57.181Z,6.60
2023-01-13T08:50:23.795Z,6.50
2023-01-13T08:52:50.536Z,6.50
2023-01-13T08:55:17.359Z,6.50
2023-01-13T08:57:44.107Z,6.50
2023-01-13T09:00:11.295Z,6.50
2023-01-13T09:02:38.557Z,6.60
2023-01-13T09:05:07.297Z,6.70
2023-01-13T09:07:36.323Z,6.80
2023-01-13T09:10:08.879Z,7.00
2023-01-13T09:12:54.060Z,7.20
2023-01-13T09:15:21.667Z,7.40
2023-01-13T09:17:48.365Z,7.40
2023-01-13T09:20:15.057Z,7.50
2023-01-13T09:22:41.863Z,7.80
2023-01-13T09:25:09.417Z,8.00
2023-01-13T09:27:36.175Z,8.30
2023-01-13T09:30:03.290Z,8.60
2023-01-13T09:32:29.902Z,8.90
2023-01-13T09:35:02.794Z,9.00
2023-01-13T09:37:35.689Z,9.00
2023-01-13T09:40:04.549Z,8.80
2023-01-13T09:43:18.951Z,8.70
2023-01-13T09:45:56.190Z,8.70
2023-01-13T09:48:30.864Z,8.70
2023-01-13T09:51:02.978Z,8.70
2023-01-13T09:53:34.653Z,8.80
2023-01-13T09:56:02.146Z,8.90
2023-01-13T09:58:28.964Z,9.20
2023-01-13T10:00:55.568Z,9.40
2023-01-13T10:03:26.136Z,9.40
2023-01-13T10:06:02.077Z,9.70
2023-01-13T10:08:34.880Z,9.80
2023-01-13T10:11:34.267Z,10.10
2023-01-13T10:14:32.969Z,10.50
2023-01-13T10:17:11.864Z,11.30
2023-01-13T10:19:45.988Z,11.60
2023-01-13T10:22:44.852Z,11.30
2023-01-13T10:25:23.942Z,11.50
2023-01-13T10:27:56.040Z,11.40
2023-01-13T10:30:31.123Z,11.30
2023-01-13T10:33:06.207Z,11.60
2023-01-13T10:35:51.622Z,12.00
2023-01-13T10:38:22.299Z,12.40
2023-01-13T10:41:00.912Z,13.00
2023-01-13T10:43:29.130Z,13.40
2023-01-13T10:46:10.592Z,14.10
2023-01-13T10:48:43.433Z,14.90
2023-01-13T10:51:42.008Z,14.60
2023-01-13T10:54:11.551Z,14.30
2023-01-13T10:56:40.972Z,14.50
2023-01-13T10:59:09.981Z,14.90
2023-01-13T11:01:37.645Z,14.90
2023-01-13T11:04:41.078Z,14.30
2023-01-13T11:07:34.251Z,14.20
2023-01-13T11:10:12.878Z,13.80
2023-01-13T11:12:57.359Z,13.20
2023-01-13T11:15:39.075Z,12.70
2023-01-13T11:18:17.631Z,12.10
2023-01-13T11:20:47.489Z,11.80
2023-01-13T11:23:35.955Z,11.20
2023-01-13T11:26:21.574Z,10.90
2023-01-13T11:29:09.752Z,10.50
2023-01-13T11:31:45.591Z,10.50
2023-01-13T11:34:25.740Z,10.10
2023-01-13T11:36:55.225Z,9.80
2023-01-13T11:39:25.883Z,9.70
2023-01-13T11:42:24.150Z,9.60
2023-01-13T11:45:17.131Z,9.50
2023-01-13T11:47:47.479Z,9.40
2023-01-13T11:50:17.870Z,9.30
2023-01-13T11:53:20.769Z,9.30
2023-01-13T11:55:59.047Z,9.30
2023-01-13T11:58:25.656Z,9.30
2023-01-13T12:01:33.016Z,9.60
2023-01-13T12:04:22.800Z,9.70
2023-01-13T12:07:18.059Z,9.80
2023-01-13T12:10:03.967Z,9.80
2023-01-13T12:12:41.449Z,9.90
2023-01-13T12:15:32.551Z,10.70
2023-01-13T12:18:19.458Z,10.80
2023-01-13T12:21:01.464Z,10.40
2023-01-13T12:23:46.149Z,10.40
2023-01-13T12:26:16.579Z,10.40
2023-01-13T12:29:18.750Z,10.30
2023-01-13T12:31:48.718Z,10.10
2023-01-13T12:34:27.700Z,9.80
2023-01-13T12:36:58.394Z,9.40
2023-01-13T12:39:27.957Z,9.10
2023-01-13T12:42:29.327Z,9.00
2023-01-13T12:45:06.212Z,9.00
2023-01-13T12:47:39.459Z,8.90
2023-01-13T12:50:24.766Z,8.80
2023-01-13T12:53:14.913Z,8.80
2023-01-13T12:55:41.595Z,9.00
2023-01-13T12:58:08.158Z,9.20
2023-01-13T13:01:00.229Z,9.40
2023-01-13T13:03:29.547Z,9.50
2023-01-13T13:06:29.236Z,9.40
2023-01-13T13:09:03.714Z,9.30
2023-01-13T13:12:03.433Z,9.40
2023-01-13T13:14:39.211Z,9.20
2023-01-13T13:17:28.374Z,9.10
2023-01-13T13:19:57.555Z,9.20
2023-01-13T13:22:27.173Z,9.20
2023-01-13T13:24:57.540Z,9.20
2023-01-13T13:27:49.066Z,9.30
2023-01-13T13:30:28.990Z,9.20
2023-01-13T13:33:28.376Z,9.10
2023-01-13T13:36:13.877Z,9.00
2023-01-13T13:39:22.210Z,9.10
2023-01-13T13:42:11.592Z,9.10
2023-01-13T13:45:00.996Z,9.00
2023-01-13T13:47:36.146Z,8.90
2023-01-13T13:50:09.156Z,8.90
2023-01-13T13:52:38.572Z,8.90
2023-01-13T13:55:23.395Z,8.80
2023-01-13T13:57:52.865Z,8.80
2023-01-13T14:00:27.015Z,8.80
2023-01-13T14:03:06.288Z,8.80
2023-01-13T14:05:34.923Z,8.80
2023-01-13T14:08:17.616Z,8.80
2023-01-13T14:10:45.826Z,8.70
2023-01-13T14:13:22.781Z,8.70
2023-01-13T14:16:10.647Z,8.70
2023-01-13T14:18:48.052Z,8.70
2023-01-13T14:21:19.538Z,8.70
2023-01-13T14:24:05.446Z,8.70
2023-01-13T14:26:32.426Z,8.70
2023-01-13T14:29:01.702Z,8.70
2023-01-13T14:31:29.425Z,8.70
2023-01-13T14:33:58.487Z,8.80
2023-01-13T14:36:34.927Z,8.80
2023-01-13T14:39:04.707Z,8.90
2023-01-13T14:41:41.086Z,8.90
2023-01-13T14:44:25.636Z,9.00
2023-01-13T14:46:55.582Z,8.90
2023-01-13T14:49:39.368Z,8.90
2023-01-13T14:52:20.699Z,8.90
2023-01-13T14:54:49.177Z,8.90
2023-01-13T14:57:23.806Z,8.90
2023-01-13T15:00:06.249Z,8.80
2023-01-13T15:02:59.576Z,8.70
2023-01-13T15:05:26.197Z,8.70
2023-01-13T15:08:02.323Z,8.60
2023-01-13T15:10:44.896Z,8.60
2023-01-13T15:13:28.787Z,8.50
2023-01-13T15:16:01.613Z,8.40
2023-01-13T15:18:28.255Z,8.20
2023-01-13T15:20:55.126Z,8.00
2023-01-13T15:23:21.919Z,7.80
2023-01-13T15:25:49.160Z,7.70
2023-01-13T15:28:22.498Z,7.60
2023-01-13T15:30:50.910Z,7.60
2023-01-13T15:33:18.231Z,7.50
2023-01-13T15:35:47.839Z,7.50
2023-01-13T15:38:18.827Z,7.50
2023-01-13T15:40:46.660Z,7.50
2023-01-13T15:43:33.703Z,7.50
2023-01-13T15:46:20.394Z,7.50
2023-01-13T15:48:48.472Z,7.50
2023-01-13T15:51:21.079Z,7.50
2023-01-13T15:53:47.690Z,7.50
2023-01-13T15:56:24.338Z,7.50
2023-01-13T15:58:50.979Z,7.50
2023-01-13T16:01:17.663Z,7.50
2023-01-13T16:03:46.491Z,7.50
2023-01-13T16:06:20.993Z,7.50
2023-01-13T16:08:47.788Z,7.50
2023-01-13T16:11:14.472Z,7.50
2023-01-13T16:13:41.143Z,7.50
2023-01-13T16:16:23.175Z,7.40
2023-01-13T16:18:51.211Z,7.50
2023-01-13T16:21:21.539Z,7.50
2023-01-13T16:23:49.422Z,7.50
2023-01-13T16:26:24.897Z,7.50
2023-01-13T16:28:53.829Z,7.50
2023-01-13T16:31:32.210Z,7.50
2023-01-13T16:34:03.290Z,7.50
2023-01-13T16:36:33.346Z,7.60
2023-01-13T16:39:00.755Z,7.60
2023-01-13T16:41:27.758Z,7.60
2023-01-13T16:43:54.395Z,7.60
2023-01-13T16:46:24.336Z,7.60
2023-01-13T16:48:53.086Z,7.60
2023-01-13T16:51:21.060Z,7.60
2023-01-13T16:53:48.110Z,7.60
2023-01-13T16:56:27.364Z,7.60
2023-01-13T16:58:55.908Z,7.60
2023-01-13T17:01:28.491Z,7.60
2023-01-13T17:03:56.175Z,7.60
2023-01-13T17:06:25.136Z,7.60
2023-01-13T17:08:53.145Z,7.50
2023-01-13T17:11:20.493Z,7.50
2023-01-13T17:13:47.208Z,7.40
2023-01-13T17:16:22.208Z,7.40
2023-01-13T17:18:49.011Z,7.30
2023-01-13T17:21:16.599Z,7.30
2023-01-13T17:23:43.596Z,7.30
2023-01-13T17:26:32.103Z,7.20
2023-01-13T17:29:01.761Z,7.20
2023-01-13T17:31:29.418Z,7.20
2023-01-13T17:33:56.201Z,7.20
2023-01-13T17:36:25.557Z,7.10
2023-01-13T17:38:52.967Z,7.10
2023-01-13T17:41:19.642Z,7.10
2023-01-13T17:43:46.395Z,7.10
2023-01-13T17:46:19.603Z,7.20
2023-01-13T17:48:47.061Z,7.20
2023-01-13T17:51:14.970Z,7.20
2023-01-13T17:53:42.898Z,7.20
2023-01-13T17:56:10.470Z,7.30
2023-01-13T17:58:38.102Z,7.30
2023-01-13T18:01:14.744Z,7.30
2023-01-13T18:03:41.446Z,7.40
2023-01-13T18:06:14.252Z,7.40
2023-01-13T18:08:41.005Z,7.40
2023-01-13T18:11:07.667Z,7.40
2023-01-13T18:13:35.153Z,7.40
2023-01-13T18:16:09.103Z,7.40
2023-01-13T18:18:35.747Z,7.40
2023-01-13T18:21:21.124Z,7.30
2023-01-13T18:24:06.379Z,7.30
2023-01-13T18:26:51.852Z,7.30
2023-01-13T18:29:18.630Z,7.20
2023-01-13T18:31:45.650Z,7.20
2023-01-13T18:34:12.315Z,7.10
2023-01-13T18:36:39.051Z,7.10
2023-01-13T18:39:05.647Z,7.10
2023-01-13T18:41:51.014Z,7.10
2023-01-13T18:44:17.782Z,7.10
2023-01-13T18:46:44.375Z,7.10
2023-01-13T18:49:11.034Z,7.10
2023-01-13T18:51:38.673Z,7.20
2023-01-13T18:54:05.807Z,7.20
2023-01-13T18:56:32.456Z,7.20
2023-01-13T18:58:59.236Z,7.20
2023-01-13T19:01:27.401Z,7.30
2023-01-13T19:04:04.978Z,7.20
2023-01-13T19:06:33.752Z,7.30
2023-01-13T19:09:08.257Z,7.20
2023-01-13T19:11:38.800Z,7.20
2023-01-13T19:14:05.413Z,7.20
2023-01-13T19:16:32.004Z,7.20
2023-01-13T19:18:59.808Z,7.20
2023-01-13T19:21:28.486Z,7.20
2023-01-13T19:23:56.607Z,7.20
2023-01-13T19:26:23.249Z,7.20
2023-01-13T19:28:50.485Z,7.10
2023-01-13T19:31:20.231Z,7.00
2023-01-13T19:33:47.153Z,7.00
2023-01-13T19:36:13.801Z,6.90
2023-01-13T19:38:40.725Z,6.90
2023-01-13T19:41:28.065Z,6.80
2023-01-13T19:44:14.855Z,6.80
2023-01-13T19:46:41.517Z,6.80
2023-01-13T19:49:08.140Z,6.80
2023-01-13T19:51:34.835Z,6.80
2023-01-13T19:54:01.482Z,6.80
2023-01-13T19:56:29.388Z,6.80
2023-01-13T19:58:57.209Z,6.80
2023-01-13T20:01:31.567Z,6.70
2023-01-13T20:04:05.206Z,6.70
2023-01-13T20:06:35.143Z,6.80
2023-01-13T20:09:01.800Z,6.80
2023-01-13T20:11:31.668Z,6.70
2023-01-13T20:13:59.538Z,6.70
2023-01-13T20:16:27.629Z,6.70
2023-01-13T20:18:54.906Z,6.70
2023-01-13T20:21:22.293Z,6.80
2023-01-13T20:23:50.625Z,6.80
2023-01-13T20:26:17.969Z,6.80
2023-01-13T20:28:45.622Z,6.70
2023-01-13T20:31:13.633Z,6.80
2023-01-13T20:33:40.788Z,6.80
2023-01-13T20:36:08.523Z,6.80
2023-01-13T20:38:38.507Z,6.80
2023-01-13T20:41:25.625Z,6.80
2023-01-13T20:43:53.218Z,6.80
2023-01-13T20:46:20.707Z,6.90
2023-01-13T20:48:47.434Z,6.90
2023-01-13T20:51:14.288Z,6.90
2023-01-13T20:53:41.468Z,6.90
2023-01-13T20:56:09.352Z,6.90
2023-01-13T20:58:38.463Z,7.00
2023-01-13T21:01:05.686Z,7.00
2023-01-13T21:03:32.416Z,7.00
2023-01-13T21:06:00.090Z,7.00
2023-01-13T21:08:26.850Z,7.10
2023-01-13T21:11:00.762Z,7.10
2023-01-13T21:13:46.239Z,7.10
2023-01-13T21:16:13.150Z,7.10
2023-01-13T21:18:58.571Z,7.10
2023-01-13T21:21:25.316Z,7.10
2023-01-13T21:23:54.749Z,7.10
2023-01-13T21:26:22.126Z,7.10
2023-01-13T21:28:50.217Z,7.10
2023-01-13T21:31:17.999Z,7.10
2023-01-13T21:33:47.472Z,7.10
2023-01-13T21:36:15.023Z,7.10
2023-01-13T21:38:41.636Z,7.10
2023-01-13T21:41:09.618Z,7.10
2023-01-13T21:43:56.394Z,7.10
2023-01-13T21:46:42.299Z,7.10
2023-01-13T21:49:09.544Z,7.10
2023-01-13T21:51:36.589Z,7.10
2023-01-13T21:54:03.269Z,7.10
2023-01-13T21:56:29.925Z,7.10
2023-01-13T21:58:56.550Z,7.10
2023-01-13T22:01:23.284Z,7.20
2023-01-13T22:04:08.585Z,7.20
2023-01-13T22:06:35.407Z,7.20
2023-01-13T22:09:02.038Z,7.20
2023-01-13T22:11:28.823Z,7.10
2023-01-13T22:14:11.082Z,7.20
2023-01-13T22:16:41.454Z,7.20
2023-01-13T22:19:09.681Z,7.20
2023-01-13T22:21:36.760Z,7.20
2023-01-13T22:24:03.606Z,7.20
2023-01-13T22:26:30.220Z,7.20
2023-01-13T22:28:56.870Z,7.10
2023-01-13T22:31:24.033Z,7.10
2023-01-13T22:33:55.412Z,7.10
2023-01-13T22:36:24.058Z,7.10
2023-01-13T22:38:55.707Z,7.10
2023-01-13T22:41:22.842Z,7.10
2023-01-13T22:43:49.453Z,7.10
2023-01-13T22:46:17.033Z,7.10
2023-01-13T22:48:44.196Z,7.10
2023-01-13T22:51:13.225Z,7.10
2023-01-13T22:53:40.726Z,7.10
2023-01-13T22:56:08.377Z,7.10
2023-01-13T22:58:35.002Z,7.20
2023-01-13T23:01:13.335Z,7.10
2023-01-13T23:03:40.740Z,7.10
2023-01-13T23:06:07.950Z,7.10
2023-01-13T23:08:35.162Z,7.10
2023-01-13T23:11:04.242Z,7.10
2023-01-13T23:13:31.153Z,7.00
2023-01-13T23:16:08.431Z,7.00
2023-01-13T23:18:35.049Z,7.00
2023-01-13T23:21:06.857Z,7.00
2023-01-13T23:23:34.276Z,7.00
2023-01-13T23:26:01.256Z,6.90
2023-01-13T23:28:28.032Z,6.90
2023-01-13T23:30:54.862Z,6.90
2023-01-13T23:33:21.738Z,6.90
2023-01-13T23:36:03.260Z,7.00
2023-01-13T23:38:30.544Z,7.00
2023-01-13T23:40:57.455Z,7.00
2023-01-13T23:43:26.275Z,7.00
2023-01-13T23:46:01.650Z,7.00
2023-01-13T23:48:29.657Z,6.90
2023-01-13T23:51:00.627Z,6.90
2023-01-13T23:53:33.321Z,6.80
2023-01-13T23:56:01.541Z,6.70
2023-01-13T23:58:29.586Z,6.70
